Time;durP1;ratioP1;P1;durP2;ratioP2;P2;SDS_P1;SDS_P2;PMS_P1;PMS_P2;Temp;Humidity;BMP_temperature;BMP_pressure;BME280_temperature;BME280_humidity;BME280_pressure;Samples;Min_cycle;Max_cycle;Signal;HPM_P1;HPM_P2
2020/12/05 00:00:50;;;;;;;0.22;0.22;;;4.40;99.30;;;;;;4100264;28;20062;-85
2020/12/05 00:02:51;;;;;;;0.52;0.40;;;4.40;99.30;;;;;;4069697;29;20119;-86
2020/12/05 00:04:52;;;;;;;0.40;0.40;;;4.50;99.30;;;;;;4063374;29;20075;-85
2020/12/05 00:06:54;;;;;;;0.47;0.47;;;4.50;99.20;;;;;;4067789;29;20064;-85
2020/12/05 00:08:55;;;;;;;0.20;0.20;;;4.50;99.20;;;;;;4084521;29;20595;-85
2020/12/05 00:10:56;;;;;;;0.98;0.45;;;4.50;99.10;;;;;;4068219;29;20440;-86
2020/12/05 00:12:58;;;;;;;0.85;0.40;;;4.50;99.10;;;;;;4068772;29;20066;-85
2020/12/05 00:14:59;;;;;;;0.38;0.38;;;4.50;99.10;;;;;;4084424;29;20059;-86
2020/12/05 00:17:00;;;;;;;0.40;0.40;;;4.50;99.10;;;;;;4083666;29;20044;-89
2020/12/05 00:19:01;;;;;;;0.50;0.50;;;4.40;99.30;;;;;;4100487;29;20142;-85
2020/12/05 00:21:03;;;;;;;1.15;0.28;;;4.30;99.50;;;;;;4100360;28;20067;-84
2020/12/05 00:23:04;;;;;;;0.40;0.30;;;4.30;99.50;;;;;;4083284;29;20048;-85
2020/12/05 00:25:05;;;;;;;0.43;0.43;;;4.30;99.50;;;;;;4099336;28;20055;-85
2020/12/05 00:27:07;;;;;;;0.20;0.20;;;4.30;99.60;;;;;;4084172;29;20052;-85
2020/12/05 00:29:08;;;;;;;0.63;0.63;;;4.30;99.40;;;;;;4099308;28;20126;-85
2020/12/05 00:31:11;;;;;;;0.45;0.45;;;4.30;99.40;;;;;;4083673;29;20131;-86
2020/12/05 00:33:12;;;;;;;0.70;0.70;;;4.30;99.30;;;;;;4084800;29;20052;-85
2020/12/05 00:35:14;;;;;;;0.55;0.55;;;4.20;99.50;;;;;;4083498;29;20055;-86
2020/12/05 00:37:16;;;;;;;0.10;0.10;;;4.20;99.50;;;;;;4084171;29;20480;-85
2020/12/05 00:39:17;;;;;;;0.30;0.30;;;4.20;99.50;;;;;;4100567;28;20133;-86
2020/12/05 00:41:18;;;;;;;0.52;0.35;;;4.20;99.60;;;;;;4083575;29;20132;-85
2020/12/05 00:43:20;;;;;;;0.50;0.50;;;4.20;99.50;;;;;;4084111;29;20044;-85
2020/12/05 00:45:21;;;;;;;0.20;0.20;;;4.30;99.30;;;;;;4068905;29;20164;-85
2020/12/05 00:47:23;;;;;;;0.60;0.60;;;4.20;99.30;;;;;;4081894;29;20455;-86
2020/12/05 00:49:25;;;;;;;0.50;0.50;;;4.20;99.40;;;;;;4067866;29;20278;-86
2020/12/05 00:51:26;;;;;;;0.50;0.50;;;4.10;99.50;;;;;;4068896;29;20052;-85
2020/12/05 00:53:28;;;;;;;3.40;0.50;;;4.10;99.60;;;;;;4068064;29;20068;-86
2020/12/05 00:55:31;;;;;;;0.50;0.50;;;4.00;99.70;;;;;;4083723;29;20059;-86
2020/12/05 00:57:32;;;;;;;0.88;0.88;;;4.00;99.80;;;;;;4083895;29;20070;-86
2020/12/05 00:59:33;;;;;;;0.38;0.38;;;3.90;99.80;;;;;;4068305;29;20044;-85
2020/12/05 01:01:34;;;;;;;0.30;0.30;;;4.00;99.80;;;;;;4099859;28;20051;-86
2020/12/05 01:03:36;;;;;;;0.68;0.40;;;4.00;99.80;;;;;;4068369;29;20465;-85
2020/12/05 01:05:37;;;;;;;0.45;0.32;;;3.90;99.90;;;;;;4068666;29;20048;-85
2020/12/05 01:07:39;;;;;;;0.45;0.45;;;3.90;99.90;;;;;;4084890;29;20055;-85
2020/12/05 01:09:40;;;;;;;0.50;0.30;;;3.90;99.90;;;;;;4067933;29;20047;-86
2020/12/05 01:11:41;;;;;;;0.25;0.25;;;3.80;99.90;;;;;;4071958;29;20064;-84
2020/12/05 01:13:43;;;;;;;0.60;0.60;;;3.90;99.90;;;;;;4099362;28;20106;-85
2020/12/05 01:15:44;;;;;;;0.47;0.47;;;3.90;99.90;;;;;;4067518;29;20070;-84
2020/12/05 01:17:46;;;;;;;0.40;0.40;;;3.90;99.90;;;;;;4097099;28;20061;-86
2020/12/05 01:19:47;;;;;;;0.93;0.70;;;3.90;99.90;;;;;;4099233;28;20133;-85
2020/12/05 01:21:48;;;;;;;0.30;0.30;;;3.90;99.90;;;;;;4067344;29;20056;-86
2020/12/05 01:23:50;;;;;;;0.30;0.30;;;3.90;99.90;;;;;;4087450;28;20056;-85
2020/12/05 01:25:51;;;;;;;0.43;0.43;;;3.90;99.90;;;;;;4098829;28;20065;-85
2020/12/05 01:27:52;;;;;;;0.38;0.38;;;3.90;99.90;;;;;;4082769;29;20058;-85
2020/12/05 01:29:54;;;;;;;0.28;0.28;;;3.90;99.90;;;;;;4067413;29;20103;-85
2020/12/05 01:31:55;;;;;;;1.17;0.85;;;4.00;99.90;;;;;;4098381;28;20047;-85
2020/12/05 01:34:02;;;;;;;0.40;0.40;;;4.00;99.90;;;;;;4066670;29;20040;-85
2020/12/05 01:36:04;;;;;;;0.93;0.50;;;4.00;99.90;;;;;;4083803;29;20066;-84
2020/12/05 01:38:05;;;;;;;0.57;0.35;;;4.00;99.90;;;;;;4098582;28;20051;-85
2020/12/05 01:40:06;;;;;;;0.25;0.25;;;4.00;99.90;;;;;;4098059;28;20459;-84
2020/12/05 01:42:07;;;;;;;1.30;0.70;;;3.90;99.90;;;;;;4082846;29;20445;-86
2020/12/05 01:44:09;;;;;;;0.30;0.30;;;3.90;99.90;;;;;;4082345;29;20062;-85
2020/12/05 01:46:35;;;;;;;0.20;0.20;;;3.90;99.90;;;;;;4066750;29;20611;-86
2020/12/05 01:48:36;;;;;;;0.88;0.88;;;3.90;99.90;;;;;;4077348;29;20044;-85
2020/12/05 01:50:38;;;;;;;0.63;0.63;;;4.00;99.90;;;;;;4082218;29;20103;-85
2020/12/05 01:52:39;;;;;;;0.47;0.47;;;4.00;99.90;;;;;;4082004;29;20090;-85
2020/12/05 01:54:40;;;;;;;0.47;0.47;;;4.00;99.90;;;;;;4082709;29;20052;-85
2020/12/05 01:56:44;;;;;;;1.13;1.02;;;4.00;99.90;;;;;;4083061;29;20058;-85
2020/12/05 01:58:45;;;;;;;0.30;0.30;;;4.00;99.90;;;;;;4081931;29;20553;-85
2020/12/05 02:00:46;;;;;;;0.50;0.30;;;3.90;99.90;;;;;;4066609;29;20456;-86
2020/12/05 02:02:48;;;;;;;0.65;0.55;;;4.00;99.90;;;;;;4067262;29;20056;-85
2020/12/05 02:05:15;;;;;;;0.20;0.20;;;4.00;99.90;;;;;;4097955;28;20053;-85
2020/12/05 02:07:29;;;;;;;0.40;0.40;;;4.00;99.90;;;;;;4097694;28;20051;-85
2020/12/05 02:09:47;;;;;;;1.55;1.05;;;3.90;99.90;;;;;;4082881;29;20044;-86
2020/12/05 02:11:56;;;;;;;0.40;0.40;;;3.90;99.90;;;;;;4084376;28;20130;-85
2020/12/05 02:13:59;;;;;;;0.52;0.52;;;3.90;99.90;;;;;;4082155;29;20446;-86
2020/12/05 02:16:00;;;;;;;0.60;0.60;;;4.00;99.90;;;;;;4066916;29;20435;-84
2020/12/05 02:18:07;;;;;;;0.17;0.17;;;4.00;99.90;;;;;;4062927;29;20167;-85
2020/12/05 02:20:09;;;;;;;0.22;0.22;;;4.00;99.90;;;;;;4082033;29;20480;-85
2020/12/05 02:22:11;;;;;;;0.65;0.63;;;4.00;99.90;;;;;;4081840;29;20099;-86
2020/12/05 02:24:12;;;;;;;0.40;0.30;;;3.90;99.90;;;;;;4067277;29;20475;-85
2020/12/05 02:26:13;;;;;;;0.50;0.50;;;4.00;99.90;;;;;;4082015;29;20521;-85
2020/12/05 02:28:16;;;;;;;0.43;0.43;;;3.90;99.90;;;;;;4065983;29;20135;-84
2020/12/05 02:30:18;;;;;;;0.30;0.30;;;3.90;99.90;;;;;;4082560;29;20059;-85
2020/12/05 02:32:19;;;;;;;0.60;0.38;;;3.80;99.90;;;;;;4081882;29;20066;-85
2020/12/05 02:34:21;;;;;;;0.20;0.20;;;3.80;99.90;;;;;;4066427;29;20054;-86
2020/12/05 02:36:22;;;;;;;0.93;0.57;;;3.80;99.90;;;;;;4098914;28;20055;-85
2020/12/05 02:38:32;;;;;;;0.28;0.28;;;3.80;99.90;;;;;;4082092;29;20421;-85
2020/12/05 02:40:33;;;;;;;0.50;0.50;;;3.80;99.90;;;;;;4097669;28;20503;-85
2020/12/05 02:42:34;;;;;;;0.50;0.50;;;3.80;99.90;;;;;;4082633;29;20062;-86
2020/12/05 02:44:46;;;;;;;0.65;0.65;;;3.80;99.90;;;;;;4066722;29;20139;-86
2020/12/05 02:46:48;;;;;;;0.40;0.40;;;3.80;99.90;;;;;;4084199;29;20055;-85
2020/12/05 02:48:50;;;;;;;0.60;0.40;;;3.70;99.90;;;;;;4085026;29;20419;-86
2020/12/05 02:50:51;;;;;;;0.60;0.60;;;3.70;99.90;;;;;;4069986;29;20051;-87
2020/12/05 02:52:52;;;;;;;0.45;0.38;;;3.60;99.90;;;;;;4084414;29;20064;-85
2020/12/05 02:54:53;;;;;;;2.78;1.85;;;3.60;99.90;;;;;;4084983;29;20527;-85
2020/12/05 02:56:55;;;;;;;1.40;1.30;;;3.60;99.90;;;;;;4070022;29;20058;-86
2020/12/05 02:58:56;;;;;;;0.47;0.40;;;3.50;99.90;;;;;;4069344;29;20056;-85
2020/12/05 03:00:57;;;;;;;0.60;0.50;;;3.60;99.90;;;;;;4100682;28;20119;-85
2020/12/05 03:02:58;;;;;;;0.50;0.50;;;3.60;99.90;;;;;;4084794;29;20044;-87
2020/12/05 03:05:00;;;;;;;0.35;0.35;;;3.50;99.90;;;;;;4069140;29;20051;-87
2020/12/05 03:07:05;;;;;;;0.30;0.30;;;3.50;99.90;;;;;;4100283;28;20067;-85
2020/12/05 03:09:08;;;;;;;;;;;3.50;99.90;;;;;;4070999;29;20056;-85
2020/12/05 03:11:09;;;;;;;1.05;0.80;;;3.50;99.90;;;;;;4084826;29;19929;-85
2020/12/05 03:13:11;;;;;;;0.98;0.50;;;3.50;99.90;;;;;;4068539;29;20118;-85
2020/12/05 03:15:12;;;;;;;0.47;0.47;;;3.50;99.90;;;;;;4069738;29;20070;-85
2020/12/05 03:17:14;;;;;;;0.30;0.30;;;3.50;99.90;;;;;;4084296;29;20102;-85
2020/12/05 03:19:16;;;;;;;0.68;0.68;;;3.60;99.90;;;;;;4100775;28;20150;-85
2020/12/05 03:21:17;;;;;;;2.00;0.40;;;3.60;99.90;;;;;;4069503;29;20048;-86
2020/12/05 03:23:18;;;;;;;0.50;0.50;;;3.60;99.90;;;;;;4068544;29;20401;-86
2020/12/05 03:25:20;;;;;;;0.30;0.30;;;3.50;99.90;;;;;;4087304;29;20043;-85
2020/12/05 03:27:21;;;;;;;0.40;0.40;;;3.50;99.90;;;;;;4069362;29;20063;-85
2020/12/05 03:29:22;;;;;;;0.43;0.43;;;3.50;99.90;;;;;;4100350;28;20078;-85
2020/12/05 03:31:37;;;;;;;0.30;0.30;;;3.50;99.90;;;;;;4084436;29;20056;-85
2020/12/05 03:33:41;;;;;;;0.43;0.43;;;3.50;99.90;;;;;;4057744;29;20418;-86
2020/12/05 03:35:44;;;;;;;1.25;1.00;;;3.40;99.90;;;;;;4084881;29;20047;-85
2020/12/05 03:37:46;;;;;;;1.55;0.60;;;3.40;99.90;;;;;;4100219;28;20071;-85
2020/12/05 03:39:47;;;;;;;0.75;0.75;;;3.40;99.90;;;;;;4084373;29;20059;-85
2020/12/05 03:41:49;;;;;;;1.58;0.40;;;3.40;99.90;;;;;;4084275;29;20052;-85
2020/12/05 03:43:50;;;;;;;0.98;0.60;;;3.40;99.90;;;;;;4068498;29;20055;-85
2020/12/05 03:45:52;;;;;;;0.65;0.65;;;3.30;99.90;;;;;;4084410;29;20500;-85
2020/12/05 03:47:53;;;;;;;0.52;0.52;;;3.30;99.90;;;;;;4069191;29;20062;-85
2020/12/05 03:49:54;;;;;;;0.55;0.55;;;3.30;99.90;;;;;;4100180;28;20047;-85
2020/12/05 03:51:55;;;;;;;0.77;0.77;;;3.30;99.90;;;;;;4068202;29;20064;-86
2020/12/05 03:53:57;;;;;;;0.57;0.57;;;3.30;99.90;;;;;;4100259;28;20095;-85
2020/12/05 03:55:58;;;;;;;1.27;0.60;;;3.20;99.90;;;;;;4099371;28;20071;-85
2020/12/05 03:58:01;;;;;;;1.15;0.70;;;3.20;99.90;;;;;;4067483;29;20047;-85
2020/12/05 04:00:04;;;;;;;0.50;0.50;;;3.20;99.90;;;;;;4065353;29;20056;-85
2020/12/05 04:02:05;;;;;;;0.52;0.40;;;3.10;99.90;;;;;;4083702;29;20542;-85
2020/12/05 04:04:06;;;;;;;0.40;0.40;;;3.10;99.90;;;;;;4068029;29;20139;-85
2020/12/05 04:06:08;;;;;;;0.55;0.47;;;3.10;99.90;;;;;;4100598;28;20047;-84
2020/12/05 04:08:09;;;;;;;0.60;0.60;;;3.00;99.90;;;;;;4067887;29;20401;-85
2020/12/05 04:10:10;;;;;;;8.55;1.65;;;3.00;99.90;;;;;;4099507;28;20045;-85
2020/12/05 04:12:11;;;;;;;0.93;0.93;;;3.00;99.90;;;;;;4084572;29;20104;-85
2020/12/05 04:14:13;;;;;;;0.63;0.63;;;2.90;99.90;;;;;;4067795;29;20044;-86
2020/12/05 04:16:14;;;;;;;0.60;0.60;;;2.90;99.90;;;;;;4084012;29;20048;-85
2020/12/05 04:18:16;;;;;;;2.40;1.73;;;2.90;99.90;;;;;;4069097;29;20059;-85
2020/12/05 04:20:17;;;;;;;0.52;0.52;;;2.90;99.90;;;;;;4083526;29;20047;-85
2020/12/05 04:22:18;;;;;;;0.77;0.77;;;2.90;99.90;;;;;;4083404;29;20132;-85
2020/12/05 04:24:20;;;;;;;0.50;0.50;;;2.80;99.90;;;;;;4082392;29;20059;-86
2020/12/05 04:26:22;;;;;;;0.50;0.50;;;2.80;99.90;;;;;;4083553;29;20091;-87
2020/12/05 04:28:23;;;;;;;0.40;0.40;;;2.80;99.90;;;;;;4067874;29;20059;-85
2020/12/05 04:30:24;;;;;;;1.10;1.08;;;2.80;99.90;;;;;;4084075;29;20583;-85
2020/12/05 04:32:26;;;;;;;0.30;0.30;;;2.80;99.90;;;;;;4068015;29;20052;-85
2020/12/05 04:34:27;;;;;;;0.35;0.30;;;2.80;99.90;;;;;;4083187;29;20043;-85
2020/12/05 04:36:29;;;;;;;1.10;0.55;;;2.80;99.90;;;;;;4099850;28;20520;-85
2020/12/05 04:38:30;;;;;;;0.88;0.82;;;2.80;99.90;;;;;;4098916;28;20591;-87
2020/12/05 04:40:31;;;;;;;0.98;0.47;;;2.70;99.90;;;;;;4067817;29;20058;-85
2020/12/05 04:42:33;;;;;;;1.90;0.63;;;2.80;99.90;;;;;;4067889;29;20068;-86
2020/12/05 04:44:34;;;;;;;0.65;0.60;;;2.80;99.90;;;;;;4067568;29;20508;-85
2020/12/05 04:46:36;;;;;;;2.20;1.23;;;2.80;99.90;;;;;;4083130;29;20048;-85
2020/12/05 04:48:37;;;;;;;0.90;0.85;;;2.80;99.90;;;;;;4067666;29;20067;-85
2020/12/05 04:50:38;;;;;;;0.80;0.35;;;2.70;99.90;;;;;;4083098;29;20040;-86
2020/12/05 04:52:39;;;;;;;2.13;0.60;;;2.70;99.90;;;;;;4067092;29;20056;-85
2020/12/05 04:54:42;;;;;;;1.10;0.98;;;2.70;99.90;;;;;;4099623;28;20051;-85
2020/12/05 04:56:43;;;;;;;1.58;1.20;;;2.70;99.90;;;;;;4067818;29;20070;-85
2020/12/05 04:58:48;;;;;;;0.90;0.90;;;2.80;99.90;;;;;;4067240;29;20067;-86
2020/12/05 05:00:57;;;;;;;1.27;0.93;;;2.70;99.90;;;;;;4083303;29;20142;-85
2020/12/05 05:02:58;;;;;;;0.82;0.70;;;2.70;99.90;;;;;;4083858;29;20062;-85
2020/12/05 05:05:00;;;;;;;0.73;0.60;;;2.70;99.90;;;;;;4067372;29;20060;-85
2020/12/05 05:07:04;;;;;;;0.75;0.75;;;2.70;99.90;;;;;;4082394;29;20065;-85
2020/12/05 05:09:05;;;;;;;1.45;0.98;;;2.70;99.90;;;;;;4080034;29;20052;-85
2020/12/05 05:11:08;;;;;;;2.38;1.00;;;2.70;99.90;;;;;;4082634;29;20062;-85
2020/12/05 05:13:18;;;;;;;0.57;0.57;;;2.70;99.90;;;;;;4082795;29;20062;-85
2020/12/05 05:15:20;;;;;;;1.40;0.70;;;2.80;99.90;;;;;;4070141;29;20078;-86
2020/12/05 05:17:22;;;;;;;0.40;0.40;;;2.80;99.90;;;;;;4082507;29;20102;-85
2020/12/05 05:19:23;;;;;;;1.48;0.80;;;2.80;99.90;;;;;;4082631;29;20063;-85
2020/12/05 05:21:34;;;;;;;1.95;0.60;;;2.80;99.90;;;;;;4099014;28;20063;-87
2020/12/05 05:23:35;;;;;;;1.75;0.85;;;2.70;99.90;;;;;;4085342;28;20051;-87
2020/12/05 05:25:56;;;;;;;0.70;0.70;;;2.70;99.90;;;;;;4094379;28;20499;-85
2020/12/05 05:27:58;;;;;;;0.35;0.35;;;2.60;99.90;;;;;;4083020;29;20597;-86
2020/12/05 05:30:12;;;;;;;0.50;0.50;;;2.60;99.90;;;;;;4067605;29;20076;-86
2020/12/05 05:32:27;;;;;;;1.40;1.30;;;2.60;99.90;;;;;;4067097;29;20060;-85
2020/12/05 05:34:29;;;;;;;0.88;0.88;;;2.60;99.90;;;;;;4068083;29;20048;-85
2020/12/05 05:36:31;;;;;;;0.40;0.40;;;2.50;99.90;;;;;;4067201;29;20590;-86
2020/12/05 05:38:32;;;;;;;1.95;0.85;;;2.40;99.90;;;;;;4066935;29;20555;-85
2020/12/05 05:40:34;;;;;;;0.93;0.93;;;2.50;99.90;;;;;;4066817;29;20052;-86
2020/12/05 05:42:39;;;;;;;1.00;0.90;;;2.30;99.90;;;;;;4067544;29;20052;-85
2020/12/05 05:44:41;;;;;;;0.77;0.77;;;2.30;99.90;;;;;;4066780;29;20052;-84
2020/12/05 05:46:49;;;;;;;1.33;1.23;;;2.30;99.90;;;;;;4066564;29;20107;-84
2020/12/05 05:48:51;;;;;;;1.00;0.43;;;2.30;99.90;;;;;;4068118;29;20063;-85
2020/12/05 05:50:52;;;;;;;0.40;0.40;;;2.30;99.90;;;;;;4082658;29;20419;-86
2020/12/05 05:52:55;;;;;;;0.80;0.60;;;2.30;99.90;;;;;;4096942;28;20061;-85
2020/12/05 05:54:56;;;;;;;3.15;1.50;;;2.20;99.90;;;;;;4080207;29;20126;-86
2020/12/05 05:57:11;;;;;;;0.93;0.65;;;2.20;99.90;;;;;;4066720;29;20048;-85
2020/12/05 05:59:12;;;;;;;1.02;1.00;;;2.20;99.90;;;;;;4084299;28;20154;-85
2020/12/05 06:01:13;;;;;;;1.10;1.00;;;2.20;99.90;;;;;;4066596;29;20050;-85
2020/12/05 06:03:22;;;;;;;1.33;0.93;;;2.10;99.90;;;;;;4082653;29;20489;-85
2020/12/05 06:05:23;;;;;;;1.00;0.75;;;2.10;99.90;;;;;;4098107;28;20459;-85
2020/12/05 06:07:24;;;;;;;3.35;0.95;;;2.10;99.90;;;;;;4081610;29;20073;-84
2020/12/05 06:09:46;;;;;;;0.93;0.85;;;2.10;99.90;;;;;;4067089;29;20071;-85
2020/12/05 06:11:47;;;;;;;1.15;1.10;;;2.10;99.90;;;;;;4099248;28;20047;-85
2020/12/05 06:13:48;;;;;;;1.52;1.42;;;2.10;99.90;;;;;;4082557;29;20062;-86
2020/12/05 06:15:50;;;;;;;0.57;0.57;;;2.00;99.90;;;;;;4097910;28;20134;-85
2020/12/05 06:17:55;;;;;;;3.72;1.63;;;2.00;99.90;;;;;;4056211;29;20630;-86
2020/12/05 06:19:57;;;;;;;2.17;0.70;;;2.00;99.90;;;;;;4062525;29;20052;-85
2020/12/05 06:21:58;;;;;;;1.42;0.65;;;1.90;99.90;;;;;;4068967;29;20312;-86
2020/12/05 06:24:05;;;;;;;0.98;0.60;;;1.90;99.90;;;;;;4086383;29;20055;-85
2020/12/05 06:26:07;;;;;;;1.08;1.05;;;1.90;99.90;;;;;;4066425;29;20060;-85
2020/12/05 06:28:10;;;;;;;0.70;0.70;;;1.90;99.90;;;;;;4069414;29;20196;-87
2020/12/05 06:30:12;;;;;;;1.33;1.15;;;1.80;99.90;;;;;;4101885;28;20049;-86
2020/12/05 06:32:36;;;;;;;0.65;0.65;;;1.80;99.90;;;;;;4069153;29;20052;-86
2020/12/05 06:34:41;;;;;;;4.00;1.30;;;1.80;99.90;;;;;;4101238;28;20057;-85
2020/12/05 06:36:42;;;;;;;1.15;1.15;;;1.80;99.90;;;;;;4085742;29;20056;-85
2020/12/05 06:38:44;;;;;;;1.02;1.02;;;1.80;99.90;;;;;;4069831;29;20056;-85
2020/12/05 06:40:45;;;;;;;1.17;1.15;;;1.80;99.90;;;;;;4069396;29;20130;-86
2020/12/05 06:42:55;;;;;;;1.20;1.10;;;1.80;99.90;;;;;;4085741;29;20058;-86
2020/12/05 06:44:56;;;;;;;1.75;1.20;;;1.80;99.90;;;;;;4085980;29;20065;-86
2020/12/05 06:47:02;;;;;;;3.03;2.03;;;1.70;99.90;;;;;;4085295;29;20429;-86
2020/12/05 06:49:04;;;;;;;0.45;0.45;;;1.70;99.90;;;;;;4084585;29;20594;-85
2020/12/05 06:51:05;;;;;;;0.68;0.68;;;1.80;99.90;;;;;;4086242;29;20060;-90
2020/12/05 06:53:19;;;;;;;0.93;0.93;;;1.80;99.90;;;;;;4069639;29;20052;-87
2020/12/05 06:55:29;;;;;;;2.22;1.35;;;1.80;99.90;;;;;;4102912;28;20050;-89
2020/12/05 06:57:31;;;;;;;0.82;0.82;;;1.80;99.90;;;;;;4101732;28;20107;-88
2020/12/05 06:59:33;;;;;;;2.38;1.13;;;1.80;99.90;;;;;;4117653;28;20054;-88
2020/12/05 07:01:34;;;;;;;1.02;1.02;;;1.90;99.90;;;;;;4104501;28;20053;-87
2020/12/05 07:03:35;;;;;;;1.77;1.42;;;1.80;99.90;;;;;;4112190;28;20049;-88
2020/12/05 07:05:43;;;;;;;1.23;1.23;;;1.80;99.90;;;;;;4110560;28;20115;-85
2020/12/05 07:07:50;;;;;;;0.73;0.70;;;1.80;99.90;;;;;;4115805;28;20070;-88
2020/12/05 07:09:52;;;;;;;1.20;1.15;;;1.80;99.90;;;;;;4102953;28;20172;-87
2020/12/05 07:12:18;;;;;;;0.60;0.60;;;1.80;99.90;;;;;;4118436;28;20404;-87
2020/12/05 07:14:24;;;;;;;0.50;0.50;;;1.70;99.90;;;;;;4117034;28;20054;-90
2020/12/05 07:16:25;;;;;;;;;;;1.70;99.90;;;;;;4106987;28;20050;-84
2020/12/05 07:18:28;;;;;;;0.70;0.70;;;1.70;99.90;;;;;;4117885;28;20020;-85
2020/12/05 07:20:29;;;;;;;3.45;1.77;;;1.80;99.90;;;;;;4116888;28;20046;-82
2020/12/05 07:22:30;;;;;;;1.35;0.77;;;1.70;99.90;;;;;;4115964;28;20049;-84
2020/12/05 07:24:32;;;;;;;2.63;1.52;;;1.70;99.90;;;;;;4117013;28;20094;-83
2020/12/05 07:26:34;;;;;;;0.80;0.65;;;1.70;99.90;;;;;;4101460;28;20487;-83
2020/12/05 07:28:35;;;;;;;1.10;1.10;;;1.70;99.90;;;;;;4116212;28;20494;-88
2020/12/05 07:30:36;;;;;;;1.23;0.50;;;1.70;99.90;;;;;;4085323;28;20090;-86
2020/12/05 07:32:41;;;;;;;2.42;1.00;;;1.60;99.90;;;;;;4117821;28;20054;-88
2020/12/05 07:34:42;;;;;;;2.40;1.08;;;1.60;99.90;;;;;;4118100;28;20047;-88
2020/12/05 07:36:44;;;;;;;1.80;1.70;;;1.60;99.90;;;;;;4117378;28;20063;-87
2020/12/05 07:38:45;;;;;;;2.45;1.55;;;1.60;99.90;;;;;;4088313;29;20048;-87
2020/12/05 07:40:47;;;;;;;3.50;2.22;;;1.60;99.90;;;;;;4116472;28;20051;-88
2020/12/05 07:42:48;;;;;;;0.75;0.50;;;1.50;99.90;;;;;;4087303;29;20047;-88
2020/12/05 07:44:50;;;;;;;0.45;0.45;;;1.60;99.90;;;;;;4086458;29;20142;-88
2020/12/05 07:46:51;;;;;;;0.60;0.50;;;1.60;99.90;;;;;;4119172;28;20476;-88
2020/12/05 07:48:55;;;;;;;1.10;1.00;;;1.60;99.90;;;;;;4102862;28;20046;-88
2020/12/05 07:50:57;;;;;;;1.27;0.90;;;1.60;99.90;;;;;;4102699;28;20043;-88
2020/12/05 07:52:58;;;;;;;0.30;0.30;;;1.60;99.90;;;;;;4101765;28;20073;-88
2020/12/05 07:55:02;;;;;;;2.17;1.98;;;1.60;99.90;;;;;;4086569;29;20543;-86
2020/12/05 07:57:06;;;;;;;1.63;1.23;;;1.60;99.90;;;;;;4083048;29;20058;-90
2020/12/05 07:59:08;;;;;;;2.42;1.52;;;1.60;99.90;;;;;;4104595;28;20043;-87
2020/12/05 08:01:10;;;;;;;3.83;1.48;;;1.60;99.90;;;;;;4116675;28;20072;-86
2020/12/05 08:03:42;;;;;;;0.73;0.47;;;1.70;99.90;;;;;;4099298;28;20059;-85
2020/12/05 08:06:07;;;;;;;2.05;1.75;;;1.70;99.90;;;;;;4086032;29;20058;-91
2020/12/05 08:08:08;;;;;;;0.98;0.82;;;1.70;99.90;;;;;;4109209;28;20050;-91
2020/12/05 08:10:15;;;;;;;1.30;1.10;;;1.70;99.90;;;;;;4093187;28;20487;-89
2020/12/05 08:12:20;;;;;;;3.50;1.45;;;1.80;99.90;;;;;;4084428;29;20048;-89
2020/12/05 08:14:21;;;;;;;2.15;1.38;;;1.90;99.90;;;;;;4104742;28;20047;-88
2020/12/05 08:16:22;;;;;;;2.13;1.77;;;1.90;99.90;;;;;;4101996;28;20055;-86
2020/12/05 08:18:25;;;;;;;1.20;0.52;;;1.90;99.90;;;;;;4100749;29;20594;-89
2020/12/05 08:20:27;;;;;;;0.52;0.52;;;1.90;99.90;;;;;;4105203;28;20074;-88
2020/12/05 08:22:31;;;;;;;1.85;1.55;;;2.00;99.90;;;;;;4105217;28;20085;-88
2020/12/05 08:24:32;;;;;;;1.70;1.00;;;2.00;99.90;;;;;;4084339;29;20087;-87
2020/12/05 08:26:34;;;;;;;1.75;1.15;;;2.00;99.90;;;;;;4096846;28;20059;-90
2020/12/05 08:28:40;;;;;;;2.25;2.05;;;2.00;99.90;;;;;;4099827;28;20053;-92
2020/12/05 08:30:41;;;;;;;1.05;0.93;;;2.00;99.90;;;;;;4082707;28;20496;-89
2020/12/05 08:32:43;;;;;;;4.82;1.67;;;2.00;99.90;;;;;;4082533;28;20055;-86
2020/12/05 08:34:44;;;;;;;2.88;1.30;;;2.00;99.90;;;;;;4093086;28;20062;-88
2020/12/05 08:36:45;;;;;;;1.17;0.98;;;2.00;99.90;;;;;;4106829;28;20553;-87
2020/12/05 08:38:47;;;;;;;2.97;1.98;;;2.10;99.90;;;;;;4099169;28;20055;-85
2020/12/05 08:41:01;;;;;;;1.38;1.27;;;2.00;99.90;;;;;;4093809;28;20512;-88
2020/12/05 08:43:03;;;;;;;0.85;0.52;;;2.10;99.90;;;;;;4096925;28;20058;-85
2020/12/05 08:45:14;;;;;;;1.38;1.13;;;2.10;99.90;;;;;;4096032;28;20431;-84
2020/12/05 08:47:15;;;;;;;1.10;0.90;;;2.20;99.90;;;;;;4116875;28;20068;-93
2020/12/05 08:49:18;;;;;;;0.75;0.75;;;2.30;99.90;;;;;;4120629;28;20043;-90
2020/12/05 08:51:28;;;;;;;3.13;0.95;;;2.30;99.90;;;;;;4103786;28;20134;-91
2020/12/05 08:53:30;;;;;;;4.07;1.30;;;2.30;99.90;;;;;;4100499;28;20054;-88
2020/12/05 08:55:31;;;;;;;0.45;0.45;;;2.30;99.90;;;;;;4090298;28;20090;-89
2020/12/05 08:57:33;;;;;;;6.25;2.65;;;2.30;99.90;;;;;;4099068;28;20055;-87
2020/12/05 08:59:34;;;;;;;0.95;0.93;;;2.30;99.90;;;;;;4105607;28;20149;-88
2020/12/05 09:01:37;;;;;;;1.67;1.20;;;2.40;99.90;;;;;;4116433;28;20049;-89
2020/12/05 09:03:38;;;;;;;1.58;1.48;;;2.40;99.90;;;;;;4121869;28;20056;-89
2020/12/05 09:05:50;;;;;;;2.55;1.15;;;2.40;99.90;;;;;;4090055;29;20448;-87
2020/12/05 09:08:01;;;;;;;1.00;0.93;;;2.40;99.90;;;;;;4087999;29;20146;-88
2020/12/05 09:10:14;;;;;;;2.05;1.65;;;2.40;99.90;;;;;;4083838;28;20047;-91
2020/12/05 09:12:18;;;;;;;2.25;1.45;;;2.40;99.90;;;;;;4114464;28;20143;-90
2020/12/05 09:14:29;;;;;;;2.03;1.83;;;2.40;99.90;;;;;;4092906;28;20043;-89
2020/12/05 09:16:32;;;;;;;2.38;1.63;;;2.40;99.90;;;;;;4094089;28;20078;-90
2020/12/05 09:18:41;;;;;;;1.50;1.40;;;2.50;99.90;;;;;;4115369;28;20053;-89
2020/12/05 09:20:43;;;;;;;2.78;1.83;;;2.50;99.90;;;;;;4101467;28;20083;-90
2020/12/05 09:22:49;;;;;;;0.40;0.32;;;2.50;99.90;;;;;;4093155;28;20047;-90
2020/12/05 09:24:50;;;;;;;1.13;1.13;;;2.60;99.90;;;;;;4114922;28;20133;-92
2020/12/05 09:26:59;;;;;;;1.75;1.45;;;2.60;99.90;;;;;;4119102;28;20146;-91
2020/12/05 09:29:00;;;;;;;5.70;2.42;;;2.60;99.90;;;;;;4112820;28;20057;-89
2020/12/05 09:31:07;;;;;;;5.03;2.28;;;2.70;99.90;;;;;;4099195;28;20058;-90
2020/12/05 09:33:12;;;;;;;2.85;1.17;;;2.70;99.90;;;;;;4096973;28;20058;-91
2020/12/05 09:35:15;;;;;;;3.45;2.85;;;2.80;99.90;;;;;;4103058;28;20052;-84
2020/12/05 09:37:16;;;;;;;1.48;1.38;;;2.80;99.90;;;;;;4106277;28;20047;-82
2020/12/05 09:39:18;;;;;;;0.80;0.80;;;2.80;99.90;;;;;;4107629;28;20043;-89
2020/12/05 09:41:19;;;;;;;1.77;1.67;;;2.80;99.90;;;;;;4112215;28;20053;-87
2020/12/05 09:43:20;;;;;;;1.80;1.17;;;2.80;99.90;;;;;;4113196;28;20047;-90
2020/12/05 09:45:22;;;;;;;0.45;0.45;;;2.80;99.90;;;;;;4093268;29;20584;-89
2020/12/05 09:47:23;;;;;;;3.38;2.17;;;2.80;99.90;;;;;;4102613;28;20061;-88
2020/12/05 09:49:25;;;;;;;1.08;0.90;;;2.90;99.90;;;;;;4088993;28;20047;-90
2020/12/05 09:51:28;;;;;;;1.52;0.98;;;2.90;99.90;;;;;;4115106;28;20046;-88
2020/12/05 09:53:29;;;;;;;1.42;1.17;;;2.90;99.90;;;;;;4082793;29;20055;-89
2020/12/05 09:55:30;;;;;;;2.10;0.85;;;3.00;99.90;;;;;;4096954;28;20051;-90
2020/12/05 09:57:33;;;;;;;2.33;1.48;;;3.10;99.90;;;;;;4107134;28;20055;-89
2020/12/05 09:59:35;;;;;;;1.73;1.48;;;3.10;99.90;;;;;;4086621;28;20063;-89
2020/12/05 10:01:36;;;;;;;0.50;0.45;;;3.10;99.90;;;;;;4098261;28;20048;-89
2020/12/05 10:03:37;;;;;;;1.48;1.10;;;3.20;99.90;;;;;;4098580;28;20454;-90
2020/12/05 10:05:38;;;;;;;1.15;1.02;;;3.20;99.90;;;;;;4099009;28;20523;-88
2020/12/05 10:07:40;;;;;;;2.72;2.25;;;3.20;99.90;;;;;;4114316;28;20054;-90
2020/12/05 10:09:41;;;;;;;1.40;0.98;;;3.30;99.90;;;;;;4115052;28;20051;-89
2020/12/05 10:11:42;;;;;;;4.65;1.95;;;3.30;99.90;;;;;;4115877;28;20051;-89
2020/12/05 10:13:43;;;;;;;2.35;2.15;;;3.30;99.90;;;;;;4104116;28;20147;-91
2020/12/05 10:15:47;;;;;;;1.63;1.33;;;3.30;99.90;;;;;;4114876;28;20133;-90
2020/12/05 10:17:49;;;;;;;4.28;2.17;;;3.40;99.90;;;;;;4097754;28;20055;-93
2020/12/05 10:19:50;;;;;;;0.98;0.55;;;3.40;99.90;;;;;;4114226;28;20129;-90
2020/12/05 10:21:54;;;;;;;2.10;1.42;;;3.50;99.90;;;;;;4102061;28;20047;-89
2020/12/05 10:23:56;;;;;;;2.15;1.27;;;3.50;99.90;;;;;;4104698;28;20528;-91
2020/12/05 10:25:57;;;;;;;2.30;1.13;;;3.50;99.90;;;;;;4105792;28;20043;-91
2020/12/05 10:27:58;;;;;;;2.33;0.95;;;3.50;99.90;;;;;;4114878;28;20514;-93
2020/12/05 10:30:00;;;;;;;1.10;1.02;;;3.60;99.90;;;;;;4116277;28;20051;-93
2020/12/05 10:32:01;;;;;;;1.50;0.70;;;3.60;99.90;;;;;;4114595;28;20507;-92
2020/12/05 10:34:02;;;;;;;1.33;0.75;;;3.60;99.90;;;;;;4115036;28;20141;-94
2020/12/05 10:36:04;;;;;;;1.92;1.70;;;3.60;99.90;;;;;;4094677;28;20138;-92
2020/12/05 10:38:05;;;;;;;4.00;1.27;;;3.60;99.90;;;;;;4115151;28;20065;-89
2020/12/05 10:40:06;;;;;;;1.45;1.35;;;3.70;99.90;;;;;;4099687;28;20051;-89
2020/12/05 10:42:07;;;;;;;1.73;1.33;;;3.70;99.90;;;;;;4098774;28;20129;-93
2020/12/05 10:44:10;;;;;;;1.75;0.70;;;3.70;99.90;;;;;;4114394;28;20522;-93
2020/12/05 10:46:11;;;;;;;1.20;0.95;;;3.70;99.90;;;;;;4102047;28;20603;-86
2020/12/05 10:48:12;;;;;;;2.95;1.20;;;3.80;99.90;;;;;;4116022;28;20043;-94
2020/12/05 10:50:13;;;;;;;4.13;2.10;;;3.90;99.90;;;;;;4114020;28;20051;-93